Tiempo atmosférico en la estación meteorológica de Castejon De Valdejasa, Zaragoza (442 m.)

Fecha
DESCASC
Temp. máxima en grados centígrados (hora)
DESCASC
Temp. mínima en grados centígrados (hora)
DESCASC
Temp. media en grados centígrados
DESCASC
Racha de viento máxima en m/sg (hora)
DESCASC
Velocidad máxima media en intervalos de 10 minutos(hora)
DESCASC
Precipitaciones diarias en mm
DESCASC
Precipitaciones de 00:00 a 06:00 en mm
DESCASC
Precipitaciones de 06:00 a 12:00 en mm
DESCASC
Precipitaciones de 12:00 a 18:00 en mm
DESCASC
Precipitaciones de 18:00 a 24:00 en mm
DESCASC
22-10-2017 14.9 (17:00) 9 (08:20) 11.9 15 (13:30) 9.44 (15:00) 0 0 0 0 0
21-10-2017 20.9 (14:00) 9.4 (23:59) 15.1 10.83 (16:00) 7.22 (16:10) 0 0 0 0 0
20-10-2017 22.2 (16:00) 9.8 (08:30) 16 6.67 (17:40) 4.72 (23:59) 0 0 0 0 0
19-10-2017 16.3 (18:00) 9.8 (00:00) 13 7.5 (15:00) 5.28 (17:30) 0.2 0.2 0 0 0
18-10-2017 16.1 (12:00) 11.6 (00:00) 13.9 11.94 (07:50) 8.89 (07:50) 7.6 0.6 3.2 2.6 1.2
17-10-2017 22.9 (16:10) 12.9 (00:00) 17.9 13.61 (12:30) 9.72 (12:40) 0.2 0 0 0 0.2
16-10-2017 24.8 (17:10) 14.5 (00:00) 19.6 13.33 (00:20) 9.44 (00:20) 0 0 0 0 0
15-10-2017 23.4 (17:00) 14.9 (00:00) 19.1 10.83 (20:50) 8.33 (21:20) 0 0 0 0 0
14-10-2017 24.6 (16:20) 15.1 (00:00) 19.9 12.22 (18:50) 8.89 (23:50) 0 0 0 0 0
13-10-2017 27.5 (17:00) 14 (00:00) 20.8 7.22 (23:30) 4.72 (23:59) 0 0 0 0 0
12-10-2017 26.2 (17:00) 13.5 (00:00) 19.9 6.11 (18:40) 4.72 (18:40) 0 0 0 0 0
11-10-2017 26.4 (16:50) 13.1 (00:00) 19.8 7.5 (13:50) 5.56 (02:30) 0 0 0 0 0
10-10-2017 26 (17:40) 9.6 (00:00) 17.8 6.39 (14:40) 3.89 (14:50) 0 0 0 0 0
09-10-2017 24.2 (16:50) 7.4 (00:00) 15.8 10 (00:30) 6.67 (00:20) 0 0 0 0 0
08-10-2017 24.7 (17:10) 7.5 (00:00) 16.1 11.67 (17:30) 7.22 (16:50) 0 0 0 0 0
07-10-2017 21.1 (17:10) 7.8 (00:00) 14.5 10.28 (00:20) 6.94 (00:10) 0 0 0 0 0
06-10-2017 21.7 (15:10) 11 (00:00) 16.4 18.33 (15:30) 10 (16:50) 0 0 0 0 0
05-10-2017 26.9 (17:00) 13.7 (00:00) 20.3 13.61 (22:00) 8.33 (22:00) 0 0 0 0 0
04-10-2017 26.9 (15:30) 12.7 (00:00) 19.8 6.39 (15:40) 4.72 (19:10) 0 0 0 0 0
03-10-2017 25.4 (17:40) 13.4 (00:00) 19.4 12.5 (14:40) 7.22 (15:40) 0 0 0 0 0
02-10-2017 25.2 (15:20) 14.6 (00:00) 19.9 12.5 (17:30) 8.33 (13:40) 0 0 0 0 0
01-10-2017 20.3 (17:10) 12.4 (00:00) 16.3 11.67 (13:50) 8.06 (13:50) 0 0 0 0 0
30-09-2017 19.3 (18:00) 14.4 (00:00) 16.8 6.39 (14:50) 4.44 (14:50) 0.6 0 0.4 0.2 0
29-09-2017 27.7 (16:20) 14.8 (00:00) 21.3 8.06 (02:50) 5.83 (06:30) 0 0 0 0 0
28-09-2017 26.9 (17:00) 15.1 (00:00) 21 -- (--) -- (--) -- 0 -- 0 0
27-09-2017 25.4 (17:00) 13.3 (00:00) 19.3 9.72 (12:20) 6.94 (10:50) 0 0 0 0 0
26-09-2017 22.8 (17:50) 11.7 (00:00) 17.2 11.39 (01:00) 7.22 (01:30) 0 0 0 0 0
25-09-2017 22.5 (15:10) 14 (00:00) 18.3 13.89 (17:10) 8.61 (14:10) 0 0 0 0 0
24-09-2017 -- (--) -- (--) -- -- (--) -- (--) -- 0 0 0 --
23-09-2017 24.8 (17:10) 11.6 (00:00) 18.2 7.5 (11:40) 5.28 (18:40) 0 0 0 0 0

Gráficas

Temp. máximas Temp. mínimas Temp. medias Precipitaciones Rachas de viento máximas Velocidades máximas media en intervalos de 10 minutos

Datos horarios

Fecha y hora oficial Temperatura (ºC) Velocidad del viento (km/h) Dirección del viento Racha (km/h) Dirección de racha Precipitación (mm) Presión (hPa) Tendencia (hPa) Humedad (%)
2017-10-22 23:00:00 10.1 23 Oeste 45 Oeste 0 -- -- 81
2017-10-22 22:00:00 11.1 24 Noroeste 46 Noroeste 0 -- -- 73
2017-10-22 21:00:00 9.9 17 Noroeste 31 Oeste 0 -- -- 79
2017-10-22 20:00:00 11.2 16 Noroeste 42 Oeste 0 -- -- 73
2017-10-22 19:00:00 12.2 15 Noroeste 50 Noroeste 0 -- -- 71
2017-10-22 18:00:00 14.2 23 Oeste 49 Oeste 0 -- -- 63
2017-10-22 17:00:00 14.9 26 Noroeste 45 Noroeste 0 -- -- 59
2017-10-22 16:00:00 14.7 22 Noroeste 54 Oeste 0 -- -- 60
2017-10-22 15:00:00 14.2 34 Oeste 53 Oeste 0 -- -- 62
2017-10-22 14:00:00 14.1 26 Oeste 54 Oeste 0 -- -- 61
2017-10-22 13:00:00 13.3 27 Oeste 43 Noroeste 0 -- -- 67
2017-10-22 12:00:00 12.7 23 Oeste 49 Oeste 0 -- -- 70
2017-10-22 11:00:00 11 26 Oeste 38 Oeste 0 -- -- 76
2017-10-22 10:00:00 10.2 19 Oeste 34 Oeste 0 -- -- 77
2017-10-22 09:00:00 9.5 15 Oeste 30 Noroeste 0 -- -- 80
2017-10-22 08:00:00 9.5 12 Noroeste 28 Noroeste 0 -- -- 78
2017-10-22 07:00:00 10.1 16 Noroeste 33 Noroeste 0 -- -- 75
2017-10-22 06:00:00 10.3 19 Noroeste 33 Noroeste 0 -- -- 75
2017-10-22 05:00:00 10.6 19 Noroeste 32 Noroeste 0 -- -- 75
2017-10-22 04:00:00 10.8 18 Noroeste 37 Noroeste 0 -- -- 74
2017-10-22 03:00:00 10.7 19 Noroeste 32 Noroeste 0 -- -- 75
2017-10-22 02:00:00 10.7 15 Noroeste 30 Noroeste 0 -- -- 72
2017-10-22 01:00:00 10.5 13 Oeste 21 Oeste 0 -- -- 73
2017-10-22 00:00:00 9.4 12 Oeste 19 Noroeste 0 -- -- 80
2017-10-21 23:00:00 11.4 10 Oeste 18 Oeste 0 -- -- 67
2017-10-21 22:00:00 11.9 10 Noroeste 26 Noroeste 0 -- -- 70
2017-10-21 21:00:00 12.6 15 Noroeste 26 Oeste 0 -- -- 68
2017-10-21 20:00:00 13.6 14 Noroeste 24 Noroeste 0 -- -- 69
2017-10-21 19:00:00 14.5 12 Noroeste 25 Oeste 0 -- -- 65
2017-10-21 18:00:00 15.5 12 Oeste 33 Noroeste 0 -- -- 67
2017-10-21 17:00:00 15.9 21 Noroeste 36 Oeste 0 -- -- 69
2017-10-21 16:00:00 18.6 25 Oeste 39 Oeste 0 -- -- 67
2017-10-21 15:00:00 18.9 18 Oeste 30 Oeste 0 -- -- 66
2017-10-21 14:00:00 20.9 21 Oeste 28 Oeste 0 -- -- 60
2017-10-21 13:00:00 20.1 14 Oeste 24 Oeste 0 -- -- 63
2017-10-21 12:00:00 19.3 13 Oeste 17 Sudoeste 0 -- -- 66
2017-10-21 11:00:00 17.2 2 Sudeste 9 Este 0 -- -- 72
2017-10-21 10:00:00 13.3 3 Este 6 Este 0 -- -- 82
2017-10-21 09:00:00 12.5 0 Calma 10 Nordeste 0 -- -- 85
2017-10-21 08:00:00 12.6 10 Nordeste 13 Este 0 -- -- 85
2017-10-21 07:00:00 13.9 11 Nordeste 16 Este 0 -- -- 80
2017-10-21 06:00:00 12.2 10 Este 16 Este 0 -- -- 83
2017-10-21 05:00:00 13.2 13 Este 20 Este 0 -- -- 80
2017-10-21 04:00:00 13.6 15 Este 23 Este 0 -- -- 78
2017-10-21 03:00:00 13.8 16 Este 21 Este 0 -- -- 77
2017-10-21 02:00:00 14.6 14 Este 26 Este 0 -- -- 74
2017-10-21 01:00:00 15.3 19 Este 29 Nordeste 0 -- -- 72
2017-10-21 00:00:00 15.4 17 Este 22 Este 0 -- -- 72
2017-10-20 23:00:00 15.3 15 Este 19 Este 0 -- -- 70
2017-10-20 22:00:00 15.4 12 Este 18 Este 0 -- -- 70
2017-10-20 21:00:00 16.1 12 Este 18 Nordeste 0 -- -- 68
2017-10-20 20:00:00 16.9 12 Este 18 Nordeste 0 -- -- 64
2017-10-20 19:00:00 18.8 12 Este 21 Este 0 -- -- 59
2017-10-20 18:00:00 20.8 16 Este 24 Este 0 -- -- 55
2017-10-20 17:00:00 22 6 Este 19 Sudoeste 0 -- -- 48
2017-10-20 16:00:00 22.2 5 Sudoeste 12 Sudoeste 0 -- -- 50
2017-10-20 15:00:00 20.2 3 Oeste 14 Oeste 0 -- -- 54
2017-10-20 14:00:00 18.8 4 Sur 13 Oeste 0 -- -- 61
2017-10-20 13:00:00 16.1 4 Sudoeste 13 Sur 0 -- -- 68
2017-10-20 12:00:00 14.1 5 Sudoeste 20 Oeste 0 -- -- 75
2017-10-20 11:00:00 12.9 9 Oeste 12 Sudoeste 0 -- -- 78
2017-10-20 10:00:00 11.2 0 Calma 9 Noroeste 0 -- -- 86
2017-10-20 09:00:00 10.6 10 Oeste 14 Noroeste 0 -- -- 85
2017-10-20 08:00:00 10.3 12 Oeste 17 Oeste 0 -- -- 85
2017-10-20 07:00:00 10.3 8 Oeste 12 Noroeste 0 -- -- 80
2017-10-20 06:00:00 11.1 9 Oeste 14 Noroeste 0 -- -- 76
2017-10-20 05:00:00 11.3 7 Noroeste 12 Noroeste 0 -- -- 75
2017-10-20 04:00:00 11.3 6 Noroeste 10 Oeste 0 -- -- 76
2017-10-20 03:00:00 11.1 7 Oeste 10 Oeste 0 -- -- 78
2017-10-20 02:00:00 11.6 7 Noroeste 9 Oeste 0 -- -- 77
2017-10-20 01:00:00 12 0 Calma 13 Oeste 0 -- -- 77
2017-10-20 00:00:00 12.2 9 Oeste 12 Oeste 0 -- -- 76
2017-10-19 23:00:00 12.2 3 Oeste 5 Oeste 0 -- -- 77
2017-10-19 22:00:00 12.2 0 Calma 8 Oeste 0 -- -- 78
2017-10-19 21:00:00 13.4 2 Noroeste 18 Noroeste 0 -- -- 71
2017-10-19 20:00:00 14.2 9 Noroeste 18 Noroeste 0 -- -- 69
2017-10-19 19:00:00 14.9 12 Oeste 23 Oeste 0 -- -- 71
2017-10-19 18:00:00 16.3 17 Oeste 24 Oeste 0 -- -- 68
2017-10-19 17:00:00 16.1 15 Oeste 22 Sudoeste 0 -- -- 70
2017-10-19 16:00:00 14.7 13 Oeste 22 Oeste 0 -- -- 75
2017-10-19 15:00:00 14.5 15 Oeste 27 Oeste 0 -- -- 77
2017-10-19 14:00:00 12.6 10 Oeste 18 Oeste 0 -- -- 85
2017-10-19 13:00:00 11.8 6 Noroeste 17 Oeste 0 -- -- 90
2017-10-19 12:00:00 10.9 12 Oeste 19 Oeste 0 -- -- 93
2017-10-19 11:00:00 10.4 10 Oeste 16 Oeste 0 -- -- 94
2017-10-19 10:00:00 10.1 12 Oeste 19 Sudoeste 0 -- -- 94
2017-10-19 09:00:00 9.9 12 Oeste 18 Oeste 0 -- -- 93
2017-10-19 08:00:00 10 10 Oeste 18 Oeste 0 -- -- 92
2017-10-19 07:00:00 9.9 8 Oeste 18 Oeste 0 -- -- 93
2017-10-19 06:00:00 10 11 Oeste 20 Oeste 0 -- -- 93
2017-10-19 05:00:00 10.1 13 Noroeste 23 Noroeste 0.2 -- -- 93
2017-10-19 04:00:00 10.6 12 Noroeste 20 Oeste 0 -- -- 96
2017-10-19 03:00:00 10.9 8 Oeste 13 Oeste 0 -- -- 95
2017-10-19 02:00:00 10.8 6 Sudoeste 24 Noroeste 0 -- -- 96
2017-10-19 01:00:00 11 17 Noroeste 24 Noroeste 0 -- -- 96
2017-10-19 00:00:00 11.7 6 Oeste 8 Oeste 0 -- -- 97
2017-10-18 23:00:00 11.7 2 Oeste 24 Sudoeste 1 -- -- 96
2017-10-18 22:00:00 12.4 17 Sudoeste 26 Sudoeste 0.2 -- -- 95
2017-10-18 21:00:00 12.5 20 Este 32 Este 0 -- -- 94
2017-10-18 20:00:00 12.8 21 Este 37 Este 0 -- -- 93
2017-10-18 19:00:00 13.4 23 Este 33 Este 0 -- -- 93
2017-10-18 18:00:00 13.8 9 Este 22 Este 0 -- -- 91
2017-10-18 17:00:00 13.2 16 Este 34 Este 0.2 -- -- 92
2017-10-18 16:00:00 14.2 16 Este 26 Este 0 -- -- 91
2017-10-18 15:00:00 14.9 19 Este 26 Este 0.2 -- -- 91
2017-10-18 14:00:00 15.6 13 Sudeste 27 Sudeste 0 -- -- 90
2017-10-18 13:00:00 15.3 18 Este 37 Este 2.2 -- -- 91
2017-10-18 12:00:00 16.1 16 Este 40 Este 0.8 -- -- 94
2017-10-18 11:00:00 15.6 25 Este 42 Este 0.2 -- -- 94
2017-10-18 10:00:00 14.8 24 Este 37 Este 2.2 -- -- 95
2017-10-18 09:00:00 14.8 27 Este 41 Este 0 -- -- 94
2017-10-18 08:00:00 14.6 30 Este 43 Este 0 -- -- 93
2017-10-18 07:00:00 14.3 26 Este 35 Este 0 -- -- 93
2017-10-18 06:00:00 14.5 24 Este 37 Este 0 -- -- 93
2017-10-18 05:00:00 14.5 25 Este 34 Este 0 -- -- 92
2017-10-18 04:00:00 14.7 25 Este 35 Este 0 -- -- 92
2017-10-18 03:00:00 14.6 21 Este 33 Este 0.2 -- -- 93
2017-10-18 02:00:00 14.8 22 Este 35 Este 0 -- -- 93
2017-10-18 01:00:00 15.2 17 Este 32 Este 0.4 -- -- 91
2017-10-18 00:00:00 15.9 18 Este 40 Este 0.2 -- -- 86
2017-10-17 23:00:00 18 25 Este 37 Este 0 -- -- 69
2017-10-17 22:00:00 19.2 23 Este 33 Este 0 -- -- 58
2017-10-17 21:00:00 19.2 22 Este 30 Este 0 -- -- 59
2017-10-17 20:00:00 19.5 21 Este 32 Este 0 -- -- 60
2017-10-17 19:00:00 20.4 22 Este 38 Este 0 -- -- 58
2017-10-17 18:00:00 21 26 Este 43 Sudeste 0 -- -- 55
2017-10-17 17:00:00 21.8 27 Este 40 Sudeste 0 -- -- 52
2017-10-17 16:00:00 22.8 25 Este 47 Este 0 -- -- 51
2017-10-17 15:00:00 22.1 26 Este 40 Este 0 -- -- 53
2017-10-17 14:00:00 20.7 24 Sudeste 46 Este 0 -- -- 59
2017-10-17 13:00:00 19.2 33 Este 49 Este 0 -- -- 64
2017-10-17 12:00:00 18.2 24 Este 44 Este 0 -- -- 69
2017-10-17 11:00:00 16 31 Este 46 Este 0 -- -- 78
2017-10-17 10:00:00 15.1 19 Este 35 Este 0 -- -- 83
2017-10-17 09:00:00 13.3 23 Este 35 Este 0 -- -- 91
2017-10-17 08:00:00 13.1 28 Este 42 Este 0 -- -- 91
2017-10-17 07:00:00 13.4 28 Este 40 Este 0 -- -- 91
2017-10-17 06:00:00 13.9 29 Este 42 Este 0 -- -- 90
2017-10-17 05:00:00 14.5 28 Este 41 Este 0 -- -- 89
2017-10-17 04:00:00 14.3 26 Este 38 Este 0 -- -- 90
2017-10-17 03:00:00 14.6 19 Este 39 Este 0 -- -- 86
2017-10-17 02:00:00 15.8 15 Este 39 Nordeste 0 -- -- 78
2017-10-17 01:00:00 16.2 19 Este 26 Este 0 -- -- 76
2017-10-17 00:00:00 17.1 15 Nordeste 20 Este 0 -- -- 71
2017-10-16 23:00:00 17.8 17 Este 34 Este 0 -- -- 68
2017-10-16 22:00:00 18.7 25 Este 31 Este 0 -- -- 66
2017-10-16 21:00:00 19 20 Este 27 Este 0 -- -- 67
2017-10-16 20:00:00 20.2 21 Este 27 Este 0 -- -- 63
2017-10-16 19:00:00 22.6 22 Este 29 Este 0 -- -- 55
2017-10-16 18:00:00 24.3 19 Este 28 Este 0 -- -- 50
2017-10-16 17:00:00 24.6 19 Este 33 Este 0 -- -- 49
2017-10-16 16:00:00 24.3 21 Este 33 Sudeste 0 -- -- 50
2017-10-16 15:00:00 23.5 21 Este 35 Este 0 -- -- 52
2017-10-16 14:00:00 22.6 17 Este 38 Este 0 -- -- 56
2017-10-16 13:00:00 21.4 25 Este 44 Este 0 -- -- 60
2017-10-16 12:00:00 19.3 31 Este 44 Este 0 -- -- 70
2017-10-16 11:00:00 17.7 28 Este 41 Este 0 -- -- 78
2017-10-16 10:00:00 15.9 21 Este 34 Este 0 -- -- 88
2017-10-16 09:00:00 14.6 15 Este 39 Este 0 -- -- 92
2017-10-16 08:00:00 14.7 27 Este 37 Este 0 -- -- 91
2017-10-16 07:00:00 15 26 Este 37 Este 0 -- -- 91
2017-10-16 06:00:00 15 26 Este 39 Este 0 -- -- 90
2017-10-16 05:00:00 15.1 26 Este 39 Este 0 -- -- 91
2017-10-16 04:00:00 15 28 Este 40 Este 0 -- -- 90
2017-10-16 03:00:00 15.6 28 Este 40 Este 0 -- -- 90
2017-10-16 02:00:00 16.1 30 Este 39 Este 0 -- -- 89
2017-10-16 01:00:00 16.5 34 Este 48 Este 0 -- -- 86
2017-10-16 00:00:00 17.8 30 Este 39 Nordeste 0 -- -- 80
2017-10-15 23:00:00 18.3 17 Este 29 Este 0 -- -- 77
2017-10-15 22:00:00 18.8 25 Este 38 Este 0 -- -- 75
2017-10-15 21:00:00 19.6 27 Este 39 Este 0 -- -- 72
2017-10-15 20:00:00 20.2 26 Este 37 Este 0 -- -- 70
2017-10-15 19:00:00 21.5 27 Este 38 Este 0 -- -- 65
2017-10-15 18:00:00 23.1 22 Este 31 Este 0 -- -- 58
2017-10-15 17:00:00 23.4 18 Este 35 Este 0 -- -- 56
2017-10-15 16:00:00 23.1 25 Este 35 Este 0 -- -- 59
2017-10-15 15:00:00 22.1 24 Este 36 Este 0 -- -- 63
2017-10-15 14:00:00 20.8 24 Este 36 Este 0 -- -- 69
2017-10-15 13:00:00 18.7 22 Este 32 Este 0 -- -- 78
2017-10-15 12:00:00 18.6 17 Este 32 Este 0 -- -- 78
2017-10-15 11:00:00 17.2 21 Este 30 Este 0 -- -- 82
2017-10-15 10:00:00 16.5 13 Este 26 Este 0 -- -- 85
2017-10-15 09:00:00 15.9 21 Este 32 Este 0 -- -- 89
2017-10-15 08:00:00 15.6 23 Este 30 Este 0 -- -- 91
2017-10-15 07:00:00 15.3 21 Este 31 Este 0 -- -- 91
2017-10-15 06:00:00 15.2 23 Este 31 Este 0 -- -- 91
2017-10-15 05:00:00 15 18 Este 26 Este 0 -- -- 91
2017-10-15 04:00:00 15.5 21 Este 31 Este 0 -- -- 89
2017-10-15 03:00:00 16.1 28 Este 37 Este 0 -- -- 86
2017-10-15 02:00:00 16.2 20 Este 33 Nordeste 0 -- -- 86
2017-10-15 01:00:00 16.8 20 Este 38 Este 0 -- -- 84
2017-10-15 00:00:00 17.9 32 Este 43 Este 0 -- -- 79
2017-10-14 23:00:00 18.5 27 Este 36 Este 0 -- -- 76
2017-10-14 22:00:00 19.2 23 Este 37 Este 0 -- -- 73
2017-10-14 21:00:00 20 25 Este 40 Este 0 -- -- 70
2017-10-14 20:00:00 20.9 30 Este 41 Este 0 -- -- 68
2017-10-14 19:00:00 22.4 30 Este 44 Este 0 -- -- 63
2017-10-14 18:00:00 23.7 28 Este 43 Este 0 -- -- 60
2017-10-14 17:00:00 24.2 24 Este 37 Este 0 -- -- 57
2017-10-14 16:00:00 23.9 19 Sudeste 33 Este 0 -- -- 59
2017-10-14 15:00:00 23.4 18 Sudeste 33 Este 0 -- -- 61
2017-10-14 14:00:00 22.9 20 Este 37 Este 0 -- -- 63
2017-10-14 13:00:00 20.2 22 Este 41 Este 0 -- -- 74
2017-10-14 12:00:00 18.7 16 Este 35 Este 0 -- -- 80
2017-10-14 11:00:00 17.7 17 Este 27 Este 0 -- -- 85
2017-10-14 10:00:00 16.1 12 Este 22 Este 0 -- -- 92
2017-10-14 09:00:00 15.5 11 Este 17 Este 0 -- -- 93
2017-10-14 08:00:00 15.2 6 Este 16 Este 0 -- -- 92
2017-10-14 07:00:00 15.8 7 Este 22 Este 0 -- -- 88
2017-10-14 06:00:00 16.5 16 Este 24 Este 0 -- -- 86
2017-10-14 05:00:00 16.5 21 Este 28 Este 0 -- -- 86
2017-10-14 04:00:00 16.6 18 Este 23 Este 0 -- -- 86
2017-10-14 03:00:00 17.4 19 Este 27 Nordeste 0 -- -- 82
2017-10-14 02:00:00 17.6 18 Este 28 Este 0 -- -- 79
2017-10-14 01:00:00 18.6 22 Este 30 Este 0 -- -- 73
2017-10-14 00:00:00 19.3 17 Este 26 Nordeste 0 -- -- 68
2017-10-13 23:00:00 19.6 13 Este 23 Este 0 -- -- 64
2017-10-13 22:00:00 20.5 9 Nordeste 14 Nordeste 0 -- -- 63
2017-10-13 21:00:00 20.5 8 Nordeste 10 Nordeste 0 -- -- 58
2017-10-13 20:00:00 22.5 5 Este 12 Este 0 -- -- 48
2017-10-13 19:00:00 24.9 12 Este 16 Este 0 -- -- 43
2017-10-13 18:00:00 26.8 10 Sudeste 18 Este 0 -- -- 38
2017-10-13 17:00:00 27.5 14 Este 21 Este 0 -- -- 37
2017-10-13 16:00:00 27.2 9 Este 23 Este 0 -- -- 38
2017-10-13 15:00:00 26.7 12 Este 22 Sudeste 0 -- -- 42
2017-10-13 14:00:00 25.7 12 Este 20 Sudeste 0 -- -- 46
2017-10-13 13:00:00 23.8 8 Este 15 Sudeste 0 -- -- 58
2017-10-13 12:00:00 20.3 8 Este 14 Este 0 -- -- 75
2017-10-13 11:00:00 17.6 10 Este 15 Este 0 -- -- 84
2017-10-13 10:00:00 16.4 7 Este 9 Este 0 -- -- 89
2017-10-13 09:00:00 14.4 4 Nordeste 8 Nordeste 0 -- -- 92
2017-10-13 08:00:00 15 4 Este 10 Nordeste 0 -- -- 91
2017-10-13 07:00:00 15.7 8 Nordeste 17 Nordeste 0 -- -- 88
2017-10-13 06:00:00 15.5 9 Este 14 Este 0 -- -- 86
2017-10-13 05:00:00 16.2 12 Este 16 Este 0 -- -- 82
2017-10-13 04:00:00 16.8 12 Este 17 Este 0 -- -- 79
2017-10-13 03:00:00 17.6 15 Este 25 Nordeste 0 -- -- 75
2017-10-13 02:00:00 17.8 14 Este 22 Este 0 -- -- 72
2017-10-13 01:00:00 18 11 Nordeste 19 Este 0 -- -- 67
2017-10-13 00:00:00 18.5 11 Nordeste 18 Este 0 -- -- 66
2017-10-12 23:00:00 18.3 12 Nordeste 15 Nordeste 0 -- -- 67
2017-10-12 22:00:00 18.5 6 Este 10 Este 0 -- -- 69
2017-10-12 21:00:00 19.4 8 Este 13 Este 0 -- -- 63
2017-10-12 20:00:00 21.1 8 Este 15 Este 0 -- -- 57
2017-10-12 19:00:00 23.2 11 Este 22 Este 0 -- -- 50
2017-10-12 18:00:00 25.2 16 Este 22 Este 0 -- -- 43
2017-10-12 17:00:00 26.2 8 Este 17 Este 0 -- -- 42
2017-10-12 16:00:00 25.6 7 Sudeste 17 Sudeste 0 -- -- 45
2017-10-12 15:00:00 24.8 9 Este 19 Este 0 -- -- 52
2017-10-12 14:00:00 23.2 13 Este 22 Este 0 -- -- 57
2017-10-12 13:00:00 22.5 9 Este 19 Este 0 -- -- 61
2017-10-12 12:00:00 20.6 4 Sur 9 Este 0 -- -- 69
2017-10-12 11:00:00 17.5 4 Este 10 Este 0 -- -- 81
2017-10-12 10:00:00 14.2 9 Este 12 Este 0 -- -- 93
2017-10-12 09:00:00 13.8 6 Este 11 Este 0 -- -- 85
2017-10-12 08:00:00 13.7 9 Este 14 Este 0 -- -- 85
2017-10-12 07:00:00 14.5 8 Este 11 Nordeste 0 -- -- 82
2017-10-12 06:00:00 14.6 8 Nordeste 10 Este 0 -- -- 79
2017-10-12 05:00:00 15.6 8 Nordeste 14 Este 0 -- -- 75
2017-10-12 04:00:00 15.9 11 Este 13 Este 0 -- -- 68
2017-10-12 03:00:00 17.2 12 Nordeste 17 Nordeste 0 -- -- 64
2017-10-12 02:00:00 16.5 13 Nordeste 20 Este 0 -- -- 68
2017-10-12 01:00:00 15.3 12 Nordeste 19 Nordeste 0 -- -- 76
2017-10-12 00:00:00 15.7 12 Nordeste 16 Nordeste 0 -- -- 76
2017-10-11 23:00:00 16.2 10 Nordeste 15 Nordeste 0 -- -- 74
2017-10-11 22:00:00 17.4 11 Nordeste 13 Nordeste 0 -- -- 69
2017-10-11 21:00:00 17.4 9 Nordeste 12 Nordeste 0 -- -- 65
2017-10-11 20:00:00 20.5 4 Este 11 Oeste 0 -- -- 56
2017-10-11 19:00:00 23.6 6 Este 18 Este 0 -- -- 40
2017-10-11 18:00:00 25.7 14 Este 20 Este 0 -- -- 37
2017-10-11 17:00:00 26.4 8 Este 14 Este 0 -- -- 37
2017-10-11 16:00:00 26.1 8 Este 16 Este 0 -- -- 40
2017-10-11 15:00:00 25 8 Sudeste 19 Este 0 -- -- 43
2017-10-11 14:00:00 23.5 12 Este 27 Este 0 -- -- 49
2017-10-11 13:00:00 22.3 9 Sudeste 21 Sudeste 0 -- -- 52
2017-10-11 12:00:00 21.1 11 Sudeste 20 Este 0 -- -- 56
2017-10-11 11:00:00 19.2 15 Este 21 Este 0 -- -- 69
2017-10-11 10:00:00 16.6 12 Este 18 Este 0 -- -- 78
2017-10-11 09:00:00 14.3 13 Este 26 Este 0 -- -- 86
2017-10-11 08:00:00 13.2 17 Este 21 Este 0 -- -- 87
2017-10-11 07:00:00 13.5 15 Este 18 Este 0 -- -- 86
2017-10-11 06:00:00 13.2 14 Este 18 Este 0 -- -- 84
2017-10-11 05:00:00 14.1 17 Este 22 Este 0 -- -- 80
2017-10-11 04:00:00 14.6 12 Este 18 Este 0 -- -- 70
2017-10-11 03:00:00 15 17 Este 23 Este 0 -- -- 60
2017-10-11 02:00:00 15.4 18 Este 22 Este 0 -- -- 56
2017-10-11 01:00:00 16.1 13 Este 18 Este 0 -- -- 51
2017-10-11 00:00:00 16.7 13 Este 17 Este 0 -- -- 48
2017-10-10 23:00:00 17.7 13 Este 17 Este 0 -- -- 43
2017-10-10 22:00:00 18.1 11 Nordeste 15 Nordeste 0 -- -- 41
2017-10-10 21:00:00 18.4 10 Nordeste 13 Nordeste 0 -- -- 40
2017-10-10 20:00:00 19.9 9 Nordeste 12 Este 0 -- -- 36
2017-10-10 19:00:00 24 7 Oeste 12 Sudoeste 0 -- -- 29
2017-10-10 18:00:00 25.8 4 Este 16 Oeste 0 -- -- 23
2017-10-10 17:00:00 25.1 10 Sudoeste 19 Sudoeste 0 -- -- 26
2017-10-10 16:00:00 24.2 13 Oeste 19 Oeste 0 -- -- 28
2017-10-10 15:00:00 23.3 13 Oeste 23 Oeste 0 -- -- 31
2017-10-10 14:00:00 21.7 11 Oeste 18 Sudoeste 0 -- -- 37
2017-10-10 13:00:00 19.6 12 Oeste 17 Oeste 0 -- -- 44
2017-10-10 12:00:00 17 13 Oeste 18 Oeste 0 -- -- 52
2017-10-10 11:00:00 15.1 10 Oeste 13 Oeste 0 -- -- 62
2017-10-10 10:00:00 14.1 0 Calma 13 Nordeste 0 -- -- 65
2017-10-10 09:00:00 10.4 9 Nordeste 11 Nordeste 0 -- -- 73
2017-10-10 08:00:00 9.8 6 Nordeste 9 Nordeste 0 -- -- 73
2017-10-10 07:00:00 10.2 6 Nordeste 13 Nordeste 0 -- -- 71
2017-10-10 06:00:00 10.6 8 Nordeste 11 Nordeste 0 -- -- 70
2017-10-10 05:00:00 11.8 5 Nordeste 10 Nordeste 0 -- -- 66
2017-10-10 04:00:00 12.7 7 Nordeste 10 Este 0 -- -- 63
2017-10-10 03:00:00 12.5 8 Este 12 Nordeste 0 -- -- 62
2017-10-10 02:00:00 12.5 9 Este 12 Este 0 -- -- 61
2017-10-10 01:00:00 14.4 5 Nordeste 8 Nordeste 0 -- -- 53
2017-10-10 00:00:00 14.7 5 Este 7 Nordeste 0 -- -- 50
2017-10-09 23:00:00 16.4 4 Este 9 Oeste 0 -- -- 46
2017-10-09 22:00:00 16.3 3 Nordeste 13 Nordeste 0 -- -- 47
2017-10-09 21:00:00 18.1 6 Este 12 Noroeste 0 -- -- 41
2017-10-09 20:00:00 21.1 9 Noroeste 15 Oeste 0 -- -- 35
2017-10-09 19:00:00 22.9 13 Oeste 21 Oeste 0 -- -- 34
2017-10-09 18:00:00 23.9 12 Oeste 22 Oeste 0 -- -- 30
2017-10-09 17:00:00 23.8 15 Oeste 23 Noroeste 0 -- -- 34
2017-10-09 16:00:00 23.1 13 Oeste 25 Oeste 0 -- -- 35
2017-10-09 15:00:00 21.3 14 Oeste 24 Sudoeste 0 -- -- 38
2017-10-09 14:00:00 20.3 15 Oeste 21 Oeste 0 -- -- 41
2017-10-09 13:00:00 18 13 Sudoeste 21 Sudoeste 0 -- -- 45
2017-10-09 12:00:00 16.2 11 Oeste 17 Oeste 0 -- -- 51
2017-10-09 11:00:00 14.1 10 Sudoeste 15 Oeste 0 -- -- 59
2017-10-09 10:00:00 12 2 Sur 10 Este 0 -- -- 64
2017-10-09 09:00:00 8.5 7 Este 9 Nordeste 0 -- -- 76
2017-10-09 08:00:00 7.4 7 Este 9 Este 0 -- -- 78
2017-10-09 07:00:00 8.5 7 Este 9 Este 0 -- -- 74
2017-10-09 06:00:00 8.9 6 Este 8 Nordeste 0 -- -- 72
2017-10-09 05:00:00 9.5 3 Este 6 Este 0 -- -- 70
2017-10-09 04:00:00 10.4 0 Calma 8 Noroeste 0 -- -- 66
2017-10-09 03:00:00 11.5 5 Noroeste 15 Noroeste 0 -- -- 64
2017-10-09 02:00:00 13.2 9 Oeste 26 Noroeste 0 -- -- 58
2017-10-09 01:00:00 14.4 9 Norte 36 Noroeste 0 -- -- 52
2017-10-09 00:00:00 14.8 22 Noroeste 32 Noroeste 0 -- -- 52
2017-10-08 23:00:00 15.3 14 Noroeste 30 Noroeste 0 -- -- 51
2017-10-08 22:00:00 15.7 8 Oeste 21 Oeste 0 -- -- 48
2017-10-08 21:00:00 18.6 13 Oeste 35 Noroeste 0 -- -- 39
2017-10-08 20:00:00 20.5 22 Noroeste 35 Noroeste 0 -- -- 33
2017-10-08 19:00:00 22.8 22 Oeste 40 Oeste 0 -- -- 27
2017-10-08 18:00:00 24.3 21 Noroeste 42 Oeste 0 -- -- 25
2017-10-08 17:00:00 24.5 25 Oeste 39 Oeste 0 -- -- 24
2017-10-08 16:00:00 23.7 22 Oeste 37 Oeste 0 -- -- 23
2017-10-08 15:00:00 21.7 19 Oeste 31 Oeste 0 -- -- 30
2017-10-08 14:00:00 19.4 18 Oeste 30 Oeste 0 -- -- 37
2017-10-08 13:00:00 17.8 19 Oeste 33 Oeste 0 -- -- 39
2017-10-08 12:00:00 15.4 23 Oeste 32 Oeste 0 -- -- 51
2017-10-08 11:00:00 14.4 14 Oeste 21 Oeste 0 -- -- 64
2017-10-08 10:00:00 11.9 8 Oeste 10 Oeste 0 -- -- 68
2017-10-08 09:00:00 9.1 6 Este 10 Nordeste 0 -- -- 76
2017-10-08 08:00:00 8.9 6 Nordeste 11 Nordeste 0 -- -- 73
2017-10-08 07:00:00 9.5 4 Nordeste 9 Nordeste 0 -- -- 70
2017-10-08 06:00:00 10.8 2 Nordeste 12 Nordeste 0 -- -- 63
2017-10-08 05:00:00 11.3 8 Nordeste 14 Nordeste 0 -- -- 62
2017-10-08 04:00:00 10.6 11 Nordeste 15 Nordeste 0 -- -- 65
2017-10-08 03:00:00 10.7 11 Nordeste 13 Nordeste 0 -- -- 64
2017-10-08 02:00:00 12.2 10 Nordeste 14 Nordeste 0 -- -- 58
2017-10-08 01:00:00 11.7 11 Nordeste 14 Nordeste 0 -- -- 57
2017-10-08 00:00:00 12.2 11 Nordeste 14 Nordeste 0 -- -- 57
2017-10-07 23:00:00 13.4 10 Nordeste 14 Nordeste 0 -- -- 55
2017-10-07 22:00:00 13.1 9 Nordeste 13 Nordeste 0 -- -- 61
2017-10-07 21:00:00 13.2 11 Nordeste 14 Nordeste 0 -- -- 62
2017-10-07 20:00:00 16.8 6 Nordeste 9 Oeste 0 -- -- 52
2017-10-07 19:00:00 20.1 8 Sudoeste 15 Oeste 0 -- -- 44
2017-10-07 18:00:00 21 9 Oeste 15 Oeste 0 -- -- 42
2017-10-07 17:00:00 21 11 Oeste 20 Oeste 0 -- -- 41
2017-10-07 16:00:00 20.3 15 Oeste 20 Oeste 0 -- -- 43
2017-10-07 15:00:00 19.2 13 Oeste 22 Sudoeste 0 -- -- 45
2017-10-07 14:00:00 17.7 10 Oeste 18 Oeste 0 -- -- 48
2017-10-07 13:00:00 15.8 10 Oeste 17 Oeste 0 -- -- 54
2017-10-07 12:00:00 13.7 9 Sudoeste 21 Sudoeste 0 -- -- 60
2017-10-07 11:00:00 12.2 12 Oeste 18 Sudoeste 0 -- -- 66
2017-10-07 10:00:00 10.3 13 Oeste 22 Oeste 0 -- -- 74
2017-10-07 09:00:00 8.9 12 Oeste 22 Oeste 0 -- -- 79
2017-10-07 08:00:00 8.1 8 Oeste 17 Oeste 0 -- -- 82
2017-10-07 07:00:00 8.5 12 Oeste 24 Oeste 0 -- -- 80
2017-10-07 06:00:00 9 15 Oeste 27 Oeste 0 -- -- 79
2017-10-07 05:00:00 9.2 19 Oeste 29 Oeste 0 -- -- 78
2017-10-07 04:00:00 9.6 20 Oeste 33 Oeste 0 -- -- 76
2017-10-07 03:00:00 9.5 18 Oeste 33 Noroeste 0 -- -- 76
2017-10-07 02:00:00 10.1 22 Oeste 33 Noroeste 0 -- -- 74
2017-10-07 01:00:00 10.4 20 Oeste 37 Oeste 0 -- -- 72
2017-10-07 00:00:00 11 25 Oeste 40 Oeste 0 -- -- 72
2017-10-06 23:00:00 11.6 26 Oeste 40 Oeste 0 -- -- 75
2017-10-06 22:00:00 13.1 21 Oeste 36 Oeste 0 -- -- 69
2017-10-06 21:00:00 14.3 26 Oeste 47 Oeste 0 -- -- 65
2017-10-06 20:00:00 15.6 27 Oeste 46 Oeste 0 -- -- 61
2017-10-06 19:00:00 17.7 29 Oeste 53 Oeste 0 -- -- 54
2017-10-06 18:00:00 20.1 22 Noroeste 59 Noroeste 0 -- -- 52
2017-10-06 17:00:00 21.1 31 Noroeste 59 Noroeste 0 -- -- 52
2017-10-06 16:00:00 21.2 29 Noroeste 66 Oeste 0 -- -- 53
2017-10-06 15:00:00 21.6 27 Oeste 54 Noroeste 0 -- -- 52
2017-10-06 14:00:00 21.3 31 Noroeste 55 Oeste 0 -- -- 54
2017-10-06 13:00:00 20.2 26 Oeste 52 Oeste 0 -- -- 58
2017-10-06 12:00:00 18.6 21 Oeste 38 Oeste 0 -- -- 61
2017-10-06 11:00:00 16.5 22 Oeste 47 Oeste 0 -- -- 68
2017-10-06 10:00:00 14.2 25 Oeste 39 Oeste 0 -- -- 74
2017-10-06 09:00:00 12.3 20 Oeste 29 Oeste 0 -- -- 79
2017-10-06 08:00:00 11.7 18 Oeste 32 Oeste 0 -- -- 81
2017-10-06 07:00:00 12.7 21 Oeste 35 Oeste 0 -- -- 78
2017-10-06 06:00:00 13.3 15 Oeste 32 Oeste 0 -- -- 79
2017-10-06 05:00:00 13.5 20 Oeste 34 Oeste 0 -- -- 82
2017-10-06 04:00:00 14 19 Oeste 35 Oeste 0 -- -- 79
2017-10-06 03:00:00 14.3 23 Oeste 43 Oeste 0 -- -- 80
2017-10-06 02:00:00 14.4 22 Oeste 36 Oeste 0 -- -- 81
2017-10-06 01:00:00 15.1 22 Oeste 42 Oeste 0 -- -- 80
2017-10-06 00:00:00 15.9 24 Oeste 41 Oeste 0 -- -- 77
2017-10-05 23:00:00 16.5 21 Oeste 45 Oeste 0 -- -- 76
2017-10-05 22:00:00 17.1 30 Oeste 49 Noroeste 0 -- -- 73
2017-10-05 21:00:00 18.4 20 Oeste 40 Noroeste 0 -- -- 68
2017-10-05 20:00:00 20.1 28 Noroeste 43 Noroeste 0 -- -- 64
2017-10-05 19:00:00 23.8 23 Noroeste 36 Noroeste 0 -- -- 56
2017-10-05 18:00:00 26.3 24 Noroeste 39 Noroeste 0 -- -- 41
2017-10-05 17:00:00 26.9 17 Noroeste 36 Oeste 0 -- -- 46
2017-10-05 16:00:00 25.7 23 Oeste 35 Oeste 0 -- -- 50
2017-10-05 15:00:00 25 19 Oeste 30 Oeste 0 -- -- 53
2017-10-05 14:00:00 24 17 Oeste 27 Sudoeste 0 -- -- 59
2017-10-05 13:00:00 22.2 16 Oeste 23 Oeste 0 -- -- 66
2017-10-05 12:00:00 20.7 12 Oeste 18 Oeste 0 -- -- 73
2017-10-05 11:00:00 19 10 Oeste 14 Oeste 0 -- -- 79
2017-10-05 10:00:00 16.9 5 Oeste 8 Oeste 0 -- -- 84
2017-10-05 09:00:00 15.2 5 Este 12 Nordeste 0 -- -- 95
2017-10-05 08:00:00 14.2 9 Nordeste 10 Nordeste 0 -- -- 91
2017-10-05 07:00:00 15.9 0 Calma 7 Este 0 -- -- 90
2017-10-05 06:00:00 16.4 6 Nordeste 16 Este 0 -- -- 89
2017-10-05 05:00:00 16.6 12 Este 19 Este 0 -- -- 87
2017-10-05 04:00:00 16.7 17 Este 21 Este 0 -- -- 80
2017-10-05 03:00:00 17.4 15 Este 19 Este 0 -- -- 74
2017-10-05 02:00:00 18.4 9 Este 13 Este 0 -- -- 70
2017-10-05 01:00:00 19.3 9 Este 16 Este 0 -- -- 65
2017-10-05 00:00:00 19.9 10 Nordeste 19 Nordeste 0 -- -- 64
2017-10-04 23:00:00 20 14 Este 17 Este 0 -- -- 64
2017-10-04 22:00:00 20.5 13 Este 21 Este 0 -- -- 63
2017-10-04 21:00:00 21.3 14 Este 19 Este 0 -- -- 62
2017-10-04 20:00:00 22.8 13 Este 23 Este 0 -- -- 55
2017-10-04 19:00:00 24.5 14 Este 21 Este 0 -- -- 48
2017-10-04 18:00:00 25.9 12 Este 22 Este 0 -- -- 45
2017-10-04 17:00:00 25.9 12 Este 21 Este 0 -- -- 47
2017-10-04 16:00:00 26.4 10 Este 23 Este 0 -- -- 47
2017-10-04 15:00:00 26.2 10 Sudeste 21 Sudeste 0 -- -- 49
2017-10-04 14:00:00 24.6 9 Este 22 Sudeste 0 -- -- 54
2017-10-04 13:00:00 23.3 13 Este 21 Este 0 -- -- 61
2017-10-04 12:00:00 21.7 8 Sudeste 18 Sudeste 0 -- -- 69
2017-10-04 11:00:00 18.7 8 Oeste 13 Oeste 0 -- -- 82
2017-10-04 10:00:00 17.2 0 Calma 4 Sur 0 -- -- 90
2017-10-04 09:00:00 15.8 3 Nordeste 9 Este 0 -- -- 94
2017-10-04 08:00:00 15 7 Este 14 Este 0 -- -- 94
2017-10-04 07:00:00 14 6 Este 12 Este 0 -- -- 95
2017-10-04 06:00:00 12.7 10 Nordeste 13 Nordeste 0 -- -- 93
2017-10-04 05:00:00 12.8 9 Nordeste 13 Nordeste 0 -- -- 91
2017-10-04 04:00:00 13.6 7 Nordeste 10 Nordeste 0 -- -- 92
2017-10-04 03:00:00 13.8 8 Nordeste 12 Nordeste 0 -- -- 88
2017-10-04 02:00:00 14.6 6 Nordeste 12 Nordeste 0 -- -- 89
2017-10-04 01:00:00 15.2 2 Oeste 14 Este 0 -- -- 84
2017-10-04 00:00:00 15.4 9 Este 10 Este 0 -- -- 83
2017-10-03 23:00:00 16.5 2 Noroeste 13 Oeste 0 -- -- 78
2017-10-03 22:00:00 17.8 8 Oeste 13 Oeste 0 -- -- 73
2017-10-03 21:00:00 18.9 6 Oeste 17 Oeste 0 -- -- 67
2017-10-03 20:00:00 20.9 9 Oeste 26 Oeste 0 -- -- 59
2017-10-03 19:00:00 23.6 20 Oeste 29 Oeste 0 -- -- 48
2017-10-03 18:00:00 25.1 16 Oeste 33 Oeste 0 -- -- 45
2017-10-03 17:00:00 25 26 Oeste 40 Oeste 0 -- -- 46
2017-10-03 16:00:00 24.8 26 Oeste 41 Oeste 0 -- -- 47
2017-10-03 15:00:00 24.4 23 Oeste 45 Oeste 0 -- -- 50
2017-10-03 14:00:00 23 16 Oeste 33 Oeste 0 -- -- 58
2017-10-03 13:00:00 20.7 19 Oeste 29 Oeste 0 -- -- 68
2017-10-03 12:00:00 18.9 17 Oeste 29 Noroeste 0 -- -- 74
2017-10-03 11:00:00 16.9 15 Oeste 19 Oeste 0 -- -- 85
2017-10-03 10:00:00 15.6 10 Oeste 14 Noroeste 0 -- -- 91
2017-10-03 09:00:00 14.4 0 Calma 10 Oeste 0 -- -- 95
2017-10-03 08:00:00 13.8 4 Oeste 7 Oeste 0 -- -- 94
2017-10-03 07:00:00 14.1 4 Noroeste 6 Noroeste 0 -- -- 93
2017-10-03 06:00:00 14.2 0 Calma 6 Este 0 -- -- 92
2017-10-03 05:00:00 14.9 3 Oeste 6 Oeste 0 -- -- 91
2017-10-03 04:00:00 14.9 2 Este 6 Este 0 -- -- 92
2017-10-03 03:00:00 15.2 0 Calma 5 Nordeste 0 -- -- 90
2017-10-03 02:00:00 15.5 0 Calma 4 Oeste 0 -- -- 87
2017-10-03 01:00:00 16.4 0 Calma 10 Oeste 0 -- -- 86
2017-10-03 00:00:00 17.7 11 Noroeste 19 Oeste 0 -- -- 82
2017-10-02 23:00:00 17.3 8 Oeste 13 Oeste 0 -- -- 85
2017-10-02 22:00:00 18.1 3 Oeste 17 Sudoeste 0 -- -- 81
2017-10-02 21:00:00 19.4 11 Oeste 23 Noroeste 0 -- -- 76
2017-10-02 20:00:00 21.2 13 Oeste 31 Oeste 0 -- -- 69
2017-10-02 19:00:00 23.2 17 Noroeste 35 Oeste 0 -- -- 63
2017-10-02 18:00:00 24.2 27 Oeste 45 Oeste 0 -- -- 59
2017-10-02 17:00:00 24.9 25 Oeste 40 Oeste 0 -- -- 58
2017-10-02 16:00:00 25 22 Oeste 41 Oeste 0 -- -- 57
2017-10-02 15:00:00 24.8 21 Oeste 43 Oeste 0 -- -- 58
2017-10-02 14:00:00 23.8 20 Noroeste 42 Oeste 0 -- -- 60
2017-10-02 13:00:00 22.5 24 Oeste 40 Oeste 0 -- -- 64
2017-10-02 12:00:00 21.3 23 Oeste 34 Oeste 0 -- -- 67
2017-10-02 11:00:00 18.7 23 Oeste 33 Oeste 0 -- -- 77
2017-10-02 10:00:00 17.5 20 Oeste 35 Oeste 0 -- -- 82
2017-10-02 09:00:00 16.2 17 Oeste 28 Oeste 0 -- -- 85
2017-10-02 08:00:00 15.1 16 Oeste 21 Oeste 0 -- -- 90
2017-10-02 07:00:00 14.7 12 Oeste 16 Noroeste 0 -- -- 90
2017-10-02 06:00:00 14.9 12 Oeste 25 Oeste 0 -- -- 88
2017-10-02 05:00:00 15.8 15 Oeste 30 Noroeste 0 -- -- 83
2017-10-02 04:00:00 15.6 14 Oeste 33 Oeste 0 -- -- 84
2017-10-02 03:00:00 16.1 19 Oeste 39 Oeste 0 -- -- 83
2017-10-02 02:00:00 16.4 17 Noroeste 32 Noroeste 0 -- -- 83
2017-10-02 01:00:00 16.8 22 Noroeste 41 Oeste 0 -- -- 82
2017-10-02 00:00:00 17 16 Oeste 34 Oeste 0 -- -- 83
2017-10-01 23:00:00 16.7 16 Oeste 35 Oeste 0 -- -- 84
2017-10-01 22:00:00 17.2 19 Oeste 36 Oeste 0 -- -- 81
2017-10-01 21:00:00 17.6 17 Oeste 35 Noroeste 0 -- -- 79
2017-10-01 20:00:00 18.1 15 Oeste 33 Noroeste 0 -- -- 76
2017-10-01 19:00:00 19.5 21 Noroeste 39 Noroeste 0 -- -- 70
2017-10-01 18:00:00 19.5 21 Noroeste 41 Noroeste 0 -- -- 70
2017-10-01 17:00:00 20.1 24 Noroeste 41 Noroeste 0 -- -- 68
2017-10-01 16:00:00 19.4 19 Noroeste 39 Oeste 0 -- -- 70
2017-10-01 15:00:00 18.9 25 Oeste 37 Oeste 0 -- -- 71
2017-10-01 14:00:00 18 23 Oeste 42 Oeste 0 -- -- 75
2017-10-01 13:00:00 16 24 Oeste 34 Oeste 0 -- -- 79
2017-10-01 12:00:00 15.9 22 Oeste 41 Oeste 0 -- -- 76
2017-10-01 11:00:00 15.7 24 Oeste 36 Oeste 0 -- -- 74
2017-10-01 10:00:00 14.2 22 Oeste 30 Oeste 0 -- -- 76
2017-10-01 09:00:00 13.1 19 Oeste 29 Oeste 0 -- -- 83
2017-10-01 08:00:00 12.6 17 Oeste 27 Oeste 0 -- -- 86
2017-10-01 07:00:00 13 18 Oeste 28 Oeste 0 -- -- 84
2017-10-01 06:00:00 13.2 17 Oeste 37 Noroeste 0 -- -- 83
2017-10-01 05:00:00 13.3 8 Oeste 28 Noroeste 0 -- -- 83
2017-10-01 04:00:00 13.8 16 Oeste 35 Oeste 0 -- -- 81
2017-10-01 03:00:00 14.2 20 Oeste 28 Oeste 0 -- -- 80
2017-10-01 02:00:00 14 10 Oeste 14 Oeste 0 -- -- 85
2017-10-01 01:00:00 13.9 10 Oeste 15 Oeste 0 -- -- 84
2017-10-01 00:00:00 14.4 5 Oeste 20 Oeste 0 -- -- 85
2017-09-30 23:00:00 15.8 12 Oeste 15 Oeste 0 -- -- 86
2017-09-30 22:00:00 17.6 8 Noroeste 14 Noroeste 0 -- -- 75
2017-09-30 21:00:00 18.1 3 Oeste 13 Oeste 0 -- -- 81
2017-09-30 20:00:00 18.3 5 Noroeste 15 Oeste 0 -- -- 79
2017-09-30 19:00:00 19 10 Oeste 15 Oeste 0 -- -- 76
2017-09-30 18:00:00 19.3 8 Oeste 13 Oeste 0 -- -- 75
2017-09-30 17:00:00 18.8 8 Oeste 14 Oeste 0 -- -- 79
2017-09-30 16:00:00 18.1 11 Oeste 18 Oeste 0 -- -- 84
2017-09-30 15:00:00 17.2 14 Oeste 23 Sudoeste 0 -- -- 91
2017-09-30 14:00:00 16.1 4 Oeste 13 Oeste 0 -- -- 94
2017-09-30 13:00:00 15.5 10 Oeste 15 Oeste 0.2 -- -- 93
2017-09-30 12:00:00 15.1 5 Oeste 9 Noroeste 0.2 -- -- 91
2017-09-30 11:00:00 15.9 5 Este 14 Este 0.2 -- -- 89
2017-09-30 10:00:00 16.2 5 Este 9 Este 0 -- -- 87
2017-09-30 09:00:00 15.2 6 Nordeste 8 Nordeste 0 -- -- 89
2017-09-30 08:00:00 15.4 4 Noroeste 8 Este 0 -- -- 87
2017-09-30 07:00:00 15.5 8 Este 15 Este 0 -- -- 89
2017-09-30 06:00:00 15.6 4 Este 18 Este 0 -- -- 85
2017-09-30 05:00:00 15.9 13 Nordeste 20 Nordeste 0 -- -- 82
2017-09-30 04:00:00 16.9 4 Nordeste 10 Este 0 -- -- 75
2017-09-30 03:00:00 18.3 6 Nordeste 19 Nordeste 0 -- -- 69
2017-09-30 02:00:00 18.9 14 Este 19 Nordeste 0 -- -- 68
2017-09-30 01:00:00 19.1 11 Nordeste 17 Nordeste 0 -- -- 66
2017-09-30 00:00:00 19.1 10 Nordeste 13 Nordeste 0 -- -- 65
2017-09-29 23:00:00 19.9 11 Este 15 Nordeste 0 -- -- 64
2017-09-29 22:00:00 19.9 11 Nordeste 14 Este 0 -- -- 65
2017-09-29 21:00:00 20.5 8 Nordeste 10 Nordeste 0 -- -- 64
2017-09-29 20:00:00 23.5 3 Este 11 Sur 0 -- -- 53
2017-09-29 19:00:00 26.3 7 Sur 14 Oeste 0 -- -- 45
2017-09-29 18:00:00 27.6 8 Sudoeste 14 Sudoeste 0 -- -- 45
2017-09-29 17:00:00 27.6 9 Sudoeste 13 Oeste 0 -- -- 44
2017-09-29 16:00:00 27.2 6 Sudoeste 19 Sudoeste 0 -- -- 45
2017-09-29 15:00:00 26.2 5 Este 15 Este 0 -- -- 49
2017-09-29 14:00:00 24.8 8 Sudeste 19 Sudeste 0 -- -- 53
2017-09-29 13:00:00 23.3 9 Sudeste 23 Este 0 -- -- 57
2017-09-29 12:00:00 22 18 Este 25 Este 0 -- -- 63
2017-09-29 11:00:00 20.2 13 Este 20 Este 0 -- -- 73
2017-09-29 10:00:00 18.1 13 Este 19 Este 0 -- -- 81
2017-09-29 09:00:00 15.8 8 Este 23 Este 0 -- -- 92
2017-09-29 08:00:00 14.8 18 Este 24 Este 0 -- -- 93
2017-09-29 07:00:00 15.6 19 Este 27 Este 0 -- -- 89
2017-09-29 06:00:00 15.5 14 Este 22 Este 0 -- -- 89
2017-09-29 05:00:00 15.7 16 Este 28 Este 0 -- -- 88
2017-09-29 04:00:00 16 17 Este 21 Este 0 -- -- 88
2017-09-29 03:00:00 16.6 18 Este 29 Este 0 -- -- 84
2017-09-29 02:00:00 17.3 13 Este 16 Este 0 -- -- 76
2017-09-29 01:00:00 18.9 11 Este 25 Este 0 -- -- 69
2017-09-29 00:00:00 19.2 19 Este 31 Este 0 -- -- 70
2017-09-28 23:00:00 19.5 18 Este 27 Este 0 -- -- 71
2017-09-28 22:00:00 20.2 19 Este 23 Este 0 -- -- 66
2017-09-28 21:00:00 21.4 18 Este 27 Este 0 -- -- 61
2017-09-28 20:00:00 23.2 19 Este 27 Este 0 -- -- 55
2017-09-28 19:00:00 25.3 16 Este 26 Este 0 -- -- 49
2017-09-28 18:00:00 26.6 16 Este 25 Este 0 -- -- 46
2017-09-28 17:00:00 26.9 13 Este 27 Este 0 -- -- 46
2017-09-28 16:00:00 26.4 12 Este 26 Este 0 -- -- 48
2017-09-28 15:00:00 25.6 14 Sudeste 28 Este 0 -- -- 49
2017-09-28 14:00:00 24.4 15 Este 28 Este 0 -- -- 55
2017-09-28 13:00:00 23.3 15 Este 27 Este 0 -- -- 59
2017-09-28 12:00:00 21.8 13 Sudeste 25 Sudeste 0 -- -- 66
2017-09-28 11:00:00 19.6 19 Este 28 Este 0 -- -- 75
2017-09-28 10:00:00 17.8 11 Este -- -- -- -- -- 83
2017-09-28 09:00:00 15.5 3 Este 10 Este 0 -- -- 91
2017-09-28 08:00:00 15.1 5 Este 27 Este 0 -- -- 91
2017-09-28 07:00:00 15.2 19 Este 28 Este 0 -- -- 92
2017-09-28 06:00:00 15.6 22 Este 35 Este 0 -- -- 92
2017-09-28 05:00:00 15.8 25 Este 33 Este 0 -- -- 92
2017-09-28 04:00:00 15.9 24 Este 35 Este 0 -- -- 90
2017-09-28 03:00:00 16.3 22 Este 28 Este 0 -- -- 87
2017-09-28 02:00:00 16.7 18 Este 24 Este 0 -- -- 79
2017-09-28 01:00:00 18 13 Este 18 Este 0 -- -- 70
2017-09-28 00:00:00 18.3 15 Este 19 Este 0 -- -- 69
2017-09-27 23:00:00 18.6 16 Este 21 Este 0 -- -- 67
2017-09-27 22:00:00 19.4 13 Este 20 Este 0 -- -- 64
2017-09-27 21:00:00 20.4 17 Este 24 Este 0 -- -- 61
2017-09-27 20:00:00 21.8 15 Este 27 Este 0 -- -- 57
2017-09-27 19:00:00 23.8 18 Este 26 Este 0 -- -- 49
2017-09-27 18:00:00 24.9 13 Este 24 Este 0 -- -- 47
2017-09-27 17:00:00 25.4 14 Este 28 Este 0 -- -- 47
2017-09-27 16:00:00 24.6 14 Sudeste 27 Este 0 -- -- 50
2017-09-27 15:00:00 23.7 17 Este 30 Este 0 -- -- 54
2017-09-27 14:00:00 22.9 15 Este 33 Este 0 -- -- 59
2017-09-27 13:00:00 21.2 22 Este 35 Este 0 -- -- 63
2017-09-27 12:00:00 19.9 23 Este 32 Este 0 -- -- 70
2017-09-27 11:00:00 17.9 23 Este 33 Este 0 -- -- 79
2017-09-27 10:00:00 15.4 18 Este 27 Este 0 -- -- 90
2017-09-27 09:00:00 14.5 14 Este 29 Este 0 -- -- 93
2017-09-27 08:00:00 13.7 22 Este 30 Este 0 -- -- 95
2017-09-27 07:00:00 13.4 18 Este 22 Este 0 -- -- 94
2017-09-27 06:00:00 13.3 15 Este 21 Este 0 -- -- 92
2017-09-27 05:00:00 13.4 14 Este 20 Este 0 -- -- 90
2017-09-27 04:00:00 13.5 15 Este 21 Este 0 -- -- 85
2017-09-27 03:00:00 13.9 16 Este 21 Este 0 -- -- 76
2017-09-27 02:00:00 15.1 11 Nordeste 17 Nordeste 0 -- -- 68
2017-09-27 01:00:00 15.8 10 Nordeste 14 Nordeste 0 -- -- 65
2017-09-27 00:00:00 14.7 11 Nordeste 15 Este 0 -- -- 68
2017-09-26 23:00:00 14.6 12 Nordeste 15 Nordeste 0 -- -- 67
2017-09-26 22:00:00 14.6 12 Nordeste 14 Nordeste 0 -- -- 67
2017-09-26 21:00:00 16.7 9 Nordeste 10 Nordeste 0 -- -- 60
2017-09-26 20:00:00 20.4 0 Calma 12 Oeste 0 -- -- 49
2017-09-26 19:00:00 21.6 10 Oeste 18 Oeste 0 -- -- 48
2017-09-26 18:00:00 22.6 12 Sudoeste 19 Oeste 0 -- -- 45
2017-09-26 17:00:00 22.4 13 Oeste 24 Oeste 0 -- -- 46
2017-09-26 16:00:00 21.9 16 Oeste 23 Oeste 0 -- -- 47
2017-09-26 15:00:00 21.2 14 Oeste 24 Oeste 0 -- -- 50
2017-09-26 14:00:00 20.1 14 Oeste 25 Oeste 0 -- -- 55
2017-09-26 13:00:00 18.8 14 Oeste 23 Oeste 0 -- -- 60
2017-09-26 12:00:00 17.5 14 Oeste 24 Oeste 0 -- -- 65
2017-09-26 11:00:00 15.8 15 Oeste 25 Oeste 0 -- -- 72
2017-09-26 10:00:00 14 12 Oeste 21 Oeste 0 -- -- 85
2017-09-26 09:00:00 12.2 8 Oeste 12 Oeste 0 -- -- 92
2017-09-26 08:00:00 11.8 8 Oeste 14 Oeste 0 -- -- 92
2017-09-26 07:00:00 12.4 10 Oeste 20 Oeste 0 -- -- 89
2017-09-26 06:00:00 13.3 9 Oeste 19 Oeste 0 -- -- 85
2017-09-26 05:00:00 13.1 10 Oeste 24 Oeste 0 -- -- 87
2017-09-26 04:00:00 13.3 13 Oeste 25 Noroeste 0 -- -- 86
2017-09-26 03:00:00 13.8 11 Oeste 33 Oeste 0 -- -- 82
2017-09-26 02:00:00 13.9 20 Noroeste 41 Oeste 0 -- -- 82
2017-09-26 01:00:00 14 25 Noroeste 41 Oeste 0 -- -- 83
2017-09-26 00:00:00 14 20 Oeste 40 Oeste 0 -- -- 83
2017-09-25 23:00:00 15.2 24 Oeste 39 Oeste 0 -- -- 76
2017-09-25 22:00:00 15.9 18 Noroeste 33 Oeste 0 -- -- 71
2017-09-25 21:00:00 16.5 21 Oeste 33 Oeste 0 -- -- 69
2017-09-25 20:00:00 17.6 18 Noroeste 36 Noroeste 0 -- -- 65
2017-09-25 19:00:00 19.3 23 Noroeste 40 Oeste 0 -- -- 60
2017-09-25 18:00:00 21.3 26 Noroeste 50 Noroeste 0 -- -- 50
2017-09-25 17:00:00 21.9 27 Noroeste 47 Oeste 0 -- -- 49
2017-09-25 16:00:00 22 22 Noroeste 47 Noroeste 0 -- -- 51
2017-09-25 15:00:00 22.4 25 Oeste 43 Oeste 0 -- -- 57
2017-09-25 14:00:00 21.7 26 Oeste 42 Oeste 0 -- -- 59
2017-09-25 13:00:00 20.7 28 Oeste 44 Oeste 0 -- -- 59
2017-09-25 12:00:00 19.2 23 Oeste -- -- -- -- -- 61
2017-09-25 11:00:00 18 19 Oeste 27 Oeste 0 -- -- 60
2017-09-25 10:00:00 16.2 19 Oeste 27 Oeste 0 -- -- 68
2017-09-25 09:00:00 16.2 13 Oeste 25 Noroeste 0 -- -- 76
2017-09-25 08:00:00 15.3 10 Oeste 16 Oeste 0 -- -- 84
2017-09-25 07:00:00 15.6 0 Calma 13 Oeste 0 -- -- 82
2017-09-25 06:00:00 16 13 Oeste 22 Oeste 0 -- -- 80
2017-09-25 05:00:00 17.8 9 Este 12 Noroeste 0 -- -- 71
2017-09-25 04:00:00 19.1 11 Noroeste 20 Este 0 -- -- 68
2017-09-25 03:00:00 19.3 18 Este 23 Este 0 -- -- 65
2017-09-25 02:00:00 20.9 15 Este 21 Este 0 -- -- 54
2017-09-25 01:00:00 21.8 12 Nordeste 17 Nordeste 0 -- -- 50
2017-09-25 00:00:00 21.5 12 Nordeste 15 Nordeste 0 -- -- 48
2017-09-24 23:00:00 -- -- -- -- -- -- -- -- --
2017-09-24 22:00:00 20.5 10 Nordeste 14 Nordeste 0 -- -- 54
2017-09-24 21:00:00 21.8 9 Nordeste 11 Nordeste 0 -- -- 51
2017-09-24 20:00:00 24.5 6 Nordeste 15 Este 0 -- -- 42
2017-09-24 19:00:00 26.6 9 Este 19 Este 0 -- -- 39
2017-09-24 18:00:00 29.1 4 Sur 9 Sudoeste 0 -- -- 30
2017-09-24 17:00:00 28.8 6 Sudeste 14 Sudoeste 0 -- -- 29
2017-09-24 16:00:00 28 6 Sudoeste 14 Oeste 0 -- -- 34
2017-09-24 15:00:00 27.2 7 Sudoeste 17 Sudoeste 0 -- -- 40
2017-09-24 14:00:00 25.5 7 Sudoeste 14 Sudoeste 0 -- -- 56
2017-09-24 13:00:00 23 8 Oeste 14 Sudoeste 0 -- -- 64
2017-09-24 12:00:00 20.4 12 Oeste 16 Oeste 0 -- -- 74
2017-09-24 11:00:00 19.7 13 Oeste 18 Oeste 0 -- -- 75
2017-09-24 10:00:00 18.5 6 Nordeste 10 Nordeste 0 -- -- 79
2017-09-24 09:00:00 15.5 8 Nordeste 12 Nordeste 0 -- -- 85
2017-09-24 08:00:00 14.1 10 Nordeste 13 Nordeste 0 -- -- 88
2017-09-24 07:00:00 14.6 6 Este 10 Nordeste 0 -- -- 85
2017-09-24 06:00:00 15.4 5 Nordeste 8 Este 0 -- -- 82
2017-09-24 05:00:00 16.6 7 Este 16 Este 0 -- -- 77
2017-09-24 04:00:00 17 12 Nordeste 19 Nordeste 0 -- -- 75
2017-09-24 03:00:00 17 14 Nordeste 18 Este 0 -- -- 77
2017-09-24 02:00:00 15.1 13 Nordeste 17 Nordeste 0 -- -- 84
2017-09-24 01:00:00 16.1 9 Nordeste 15 Este 0 -- -- 81
2017-09-24 00:00:00 17.7 12 Nordeste 14 Nordeste 0 -- -- 79
2017-09-23 23:00:00 -- -- -- -- -- -- -- -- --
2017-09-23 22:00:00 -- -- -- -- -- -- -- -- --
2017-09-23 21:00:00 -- -- -- -- -- -- -- -- --
2017-09-23 20:00:00 -- -- -- -- -- -- -- -- --
2017-09-23 19:00:00 -- -- -- -- -- -- -- -- --
2017-09-23 18:00:00 -- -- -- -- -- -- -- -- --
2017-09-23 17:00:00 -- -- -- -- -- -- -- -- --
2017-09-23 16:00:00 -- -- -- -- -- -- -- -- --
2017-09-23 15:00:00 -- -- -- -- -- -- -- -- --
2017-09-23 14:00:00 -- -- -- -- -- -- -- -- --
2017-09-23 13:00:00 -- -- -- -- -- -- -- -- --
2017-09-23 12:00:00 -- -- -- -- -- -- -- -- --
2017-09-23 11:00:00 -- -- -- -- -- -- -- -- --
2017-09-23 10:00:00 -- -- -- -- -- -- -- -- --
2017-09-23 09:00:00 -- -- -- -- -- -- -- -- --
2017-09-23 08:00:00 -- -- -- -- -- -- -- -- --
2017-09-23 07:00:00 -- -- -- -- -- -- -- -- --
2017-09-23 06:00:00 -- -- -- -- -- -- -- -- --
2017-09-23 05:00:00 -- -- -- -- -- -- -- -- --
2017-09-23 04:00:00 -- -- -- -- -- -- -- -- --
2017-09-23 03:00:00 -- -- -- -- -- -- -- -- --
2017-09-23 02:00:00 -- -- -- -- -- -- -- -- --
2017-09-23 01:00:00 -- -- -- -- -- -- -- -- --
2017-09-23 00:00:00 -- -- -- -- -- -- -- -- --